Time;durP1;ratioP1;P1;durP2;ratioP2;P2;SDS_P1;SDS_P2;PMS_P1;PMS_P2;Temp;Humidity;BMP_temperature;BMP_pressure;BME280_temperature;BME280_humidity;BME280_pressure;Samples;Min_cycle;Max_cycle;Signal;HPM_P1;HPM_P2
2023/01/25 00:02:18;;;;;;;2.42;1.23;;;;;;;4.24;78.98;102437.13;4940418;28;20094;-72
2023/01/25 00:04:45;;;;;;;2.47;1.17;;;;;;;4.26;78.73;102442.34;4912990;28;20047;-72
2023/01/25 00:07:12;;;;;;;2.85;1.60;;;;;;;4.26;78.90;102432.84;4943199;28;20047;-72
2023/01/25 00:09:39;;;;;;;4.18;1.60;;;;;;;4.27;78.95;102437.22;4940068;28;20055;-72
2023/01/25 00:12:07;;;;;;;2.65;1.75;;;;;;;4.29;79.01;102435.53;4943902;28;20137;-72
2023/01/25 00:14:34;;;;;;;1.52;1.27;;;;;;;4.31;78.80;102432.16;4938982;28;20054;-72
2023/01/25 00:17:01;;;;;;;3.65;1.77;;;;;;;4.33;79.06;102425.34;4939146;28;20436;-71
2023/01/25 00:19:28;;;;;;;2.83;1.40;;;;;;;4.34;78.81;102432.25;4942260;28;20208;-72
2023/01/25 00:21:55;;;;;;;2.10;1.33;;;;;;;4.25;78.95;102405.25;4940503;28;20067;-72
2023/01/25 00:24:23;;;;;;;2.45;1.50;;;;;;;4.36;79.03;102418.53;4931052;28;20049;-71
2023/01/25 00:26:49;;;;;;;3.05;1.45;;;;;;;4.37;79.21;102411.66;4941945;29;20131;-71
2023/01/25 00:29:18;;;;;;;1.90;1.15;;;;;;;4.38;78.94;102401.34;4938119;29;20047;-71
2023/01/25 00:31:54;;;;;;;1.83;1.10;;;;;;;4.37;79.08;102417.69;4945031;28;20526;-72
2023/01/25 00:34:47;;;;;;;2.90;1.33;;;;;;;4.39;78.89;102405.72;4941488;28;20053;-72
2023/01/25 00:37:20;;;;;;;4.10;1.40;;;;;;;4.40;79.01;102404.00;4942346;28;20047;-71
2023/01/25 00:39:47;;;;;;;4.15;1.15;;;;;;;4.42;78.99;102407.53;4940926;28;20070;-71
2023/01/25 00:42:16;;;;;;;3.70;1.02;;;;;;;4.43;79.06;102393.75;4939465;28;20062;-72
2023/01/25 00:44:44;;;;;;;2.33;1.45;;;;;;;4.44;79.04;102388.63;4938887;28;20055;-72
2023/01/25 00:47:11;;;;;;;4.25;1.40;;;;;;;4.45;78.98;102382.63;4944644;28;20147;-71
2023/01/25 00:49:40;;;;;;;3.53;1.52;;;;;;;4.46;79.37;102381.78;4941751;29;20158;-72
2023/01/25 00:52:08;;;;;;;2.47;1.45;;;;;;;4.47;78.92;102380.09;4940207;28;20051;-72
2023/01/25 00:54:35;;;;;;;4.30;1.40;;;;;;;4.49;79.07;102378.41;4942175;28;20051;-72
2023/01/25 00:57:02;;;;;;;2.65;1.20;;;;;;;4.50;79.16;102372.44;4940047;28;20174;-72
2023/01/25 00:59:29;;;;;;;3.00;1.17;;;;;;;4.51;79.14;102372.47;4940530;28;20071;-72
2023/01/25 01:01:57;;;;;;;1.70;1.23;;;;;;;4.52;79.03;102373.34;4941230;28;20058;-72
2023/01/25 01:04:24;;;;;;;1.52;1.10;;;;;;;4.53;79.17;102361.28;4941141;28;20503;-72
2023/01/25 01:06:53;;;;;;;2.10;0.80;;;;;;;4.54;79.33;102358.75;4938909;28;20496;-72
2023/01/25 01:09:21;;;;;;;2.45;1.10;;;;;;;4.55;79.21;102346.66;4942161;29;20179;-72
2023/01/25 01:11:48;;;;;;;2.55;1.45;;;;;;;4.56;79.19;102344.16;4939306;28;20052;-72
2023/01/25 01:14:15;;;;;;;2.05;1.00;;;;;;;4.58;79.20;102341.59;4938565;28;20048;-71
2023/01/25 01:16:42;;;;;;;1.85;1.05;;;;;;;4.58;79.14;102341.59;4939097;28;20052;-72
2023/01/25 01:19:10;;;;;;;2.92;1.02;;;;;;;4.59;79.20;102333.88;4937915;28;20051;-72
2023/01/25 01:21:37;;;;;;;2.10;1.00;;;;;;;4.61;79.36;102341.69;4943665;28;20051;-72
2023/01/25 01:24:05;;;;;;;3.03;0.82;;;;;;;4.61;79.13;102327.06;4940764;28;20055;-71
2023/01/25 01:26:32;;;;;;;2.03;0.95;;;;;;;4.62;79.16;102321.03;4938887;28;20444;-72
2023/01/25 01:28:59;;;;;;;1.58;0.80;;;;;;;4.63;79.50;102320.19;4937055;28;20054;-72
2023/01/25 01:31:26;;;;;;;2.33;1.30;;;;;;;4.64;79.23;102297.78;4940107;28;20051;-72
2023/01/25 01:33:55;;;;;;;3.25;1.35;;;;;;;4.62;79.23;102305.50;4938978;28;20050;-71
2023/01/25 01:36:27;;;;;;;1.10;0.80;;;;;;;4.67;79.52;102305.66;4943310;28;20043;-72
2023/01/25 01:38:54;;;;;;;1.85;0.70;;;;;;;4.67;79.24;102305.66;4935529;28;20065;-72
2023/01/25 01:41:21;;;;;;;2.13;0.90;;;;;;;4.67;79.58;102298.78;4937096;28;20047;-71
2023/01/25 01:43:48;;;;;;;0.93;0.68;;;;;;;4.68;79.32;102297.94;4942693;28;20054;-72
2023/01/25 01:46:21;;;;;;;3.35;1.02;;;;;;;4.70;79.20;102292.81;4941322;29;20054;-72
2023/01/25 01:48:52;;;;;;;2.67;0.93;;;;;;;4.67;79.19;102290.13;4942807;28;20460;-72
2023/01/25 01:51:27;;;;;;;1.98;1.00;;;;;;;4.72;79.24;102291.13;4939163;28;20055;-71
2023/01/25 01:53:58;;;;;;;3.27;0.87;;;;;;;4.72;79.34;102276.50;4944521;28;20043;-72
2023/01/25 01:56:31;;;;;;;2.85;0.80;;;;;;;4.74;79.16;102274.81;4937023;28;20770;-72
2023/01/25 01:59:00;;;;;;;2.13;1.20;;;;;;;4.72;79.27;102273.91;4939915;28;20400;-72
2023/01/25 02:01:27;;;;;;;3.35;0.70;;;;;;;4.76;79.35;102264.50;4936837;28;20130;-71
2023/01/25 02:03:54;;;;;;;3.63;0.70;;;;;;;4.75;79.45;102273.09;4940274;28;20051;-72
2023/01/25 02:06:32;;;;;;;2.47;0.73;;;;;;;4.78;79.23;102268.03;4939843;28;20043;-72
2023/01/25 02:09:01;;;;;;;2.47;0.90;;;;;;;4.79;79.44;102267.19;4943177;29;20811;-72
2023/01/25 02:11:29;;;;;;;1.77;0.98;;;;;;;4.79;79.65;102264.59;4940533;28;20047;-71
2023/01/25 02:13:58;;;;;;;1.90;1.20;;;;;;;4.82;79.25;102263.81;4936870;28;20048;-72
2023/01/25 02:16:27;;;;;;;2.25;1.10;;;;;;;4.82;79.35;102253.47;4940192;28;20047;-72
2023/01/25 02:18:57;;;;;;;1.52;0.90;;;;;;;4.83;79.30;102258.66;4947381;28;20050;-72
2023/01/25 02:21:26;;;;;;;3.85;0.90;;;;;;;4.84;79.33;102250.09;4945189;28;20048;-72
2023/01/25 02:23:57;;;;;;;2.60;2.10;;;;;;;4.85;79.28;102249.25;4943068;28;20058;-72
2023/01/25 02:26:25;;;;;;;1.85;0.77;;;;;;;4.86;79.38;102261.34;4947443;28;20051;-72
2023/01/25 02:28:57;;;;;;;1.08;1.02;;;;;;;4.88;79.36;102249.31;4943396;28;20514;-71
2023/01/25 02:31:24;;;;;;;0.95;0.70;;;;;;;4.88;79.25;102249.31;4944565;28;20051;-71
2023/01/25 02:33:51;;;;;;;2.10;0.88;;;;;;;4.88;79.24;102243.28;4943573;28;20043;-72
2023/01/25 02:36:24;;;;;;;1.13;0.68;;;;;;;4.89;79.32;102245.03;4944230;28;20054;-72
2023/01/25 02:38:55;;;;;;;1.52;0.60;;;;;;;4.91;79.35;102248.53;4942501;28;20055;-72
2023/01/25 02:41:30;;;;;;;1.90;0.50;;;;;;;4.90;79.33;102239.91;4942711;29;20054;-73
2023/01/25 02:43:57;;;;;;;1.05;0.50;;;;;;;4.92;79.32;102239.91;4946001;28;20059;-72
2023/01/25 02:46:27;;;;;;;0.90;0.50;;;;;;;4.93;79.25;102226.16;4945067;28;20127;-71
2023/01/25 02:48:55;;;;;;;0.65;0.40;;;;;;;4.83;79.11;102209.47;4944520;28;20063;-72
2023/01/25 02:51:23;;;;;;;1.85;0.35;;;;;;;4.94;79.08;102233.97;4942098;28;20079;-72
2023/01/25 02:53:50;;;;;;;0.50;0.40;;;;;;;4.96;79.15;102226.25;4949117;28;20055;-72
2023/01/25 02:56:18;;;;;;;0.80;0.50;;;;;;;4.94;79.09;102226.19;4942638;28;20043;-71
2023/01/25 02:58:47;;;;;;;0.70;0.40;;;;;;;4.99;79.21;102222.88;4944170;29;20053;-71
2023/01/25 03:01:14;;;;;;;0.38;0.35;;;;;;;4.99;79.26;102221.16;4939463;29;20505;-72
2023/01/25 03:03:42;;;;;;;0.90;0.50;;;;;;;5.00;79.26;102207.34;4943709;28;20058;-72
2023/01/25 03:06:09;;;;;;;0.40;0.40;;;;;;;5.01;79.21;102203.94;4937665;28;20054;-72
2023/01/25 03:08:36;;;;;;;0.98;0.32;;;;;;;4.92;79.22;102190.72;4942907;28;20812;-72
2023/01/25 03:11:05;;;;;;;2.40;0.93;;;;;;;5.02;79.35;102203.09;4944718;28;20131;-72
2023/01/25 03:13:33;;;;;;;0.73;0.30;;;;;;;5.02;79.20;102197.91;4940934;28;20052;-72
2023/01/25 03:16:03;;;;;;;0.50;0.40;;;;;;;5.05;79.34;102205.78;4943407;28;20054;-71
2023/01/25 03:18:30;;;;;;;1.33;0.30;;;;;;;5.05;79.34;102190.22;4941853;29;20051;-72
2023/01/25 03:21:04;;;;;;;0.52;0.30;;;;;;;5.07;79.19;102193.75;4942151;28;20053;-71
2023/01/25 03:23:31;;;;;;;1.70;0.40;;;;;;;5.02;79.32;102178.91;4941605;28;20419;-71
2023/01/25 03:26:05;;;;;;;0.70;0.38;;;;;;;5.09;79.23;102186.00;4940655;29;20039;-72
2023/01/25 03:28:32;;;;;;;0.40;0.30;;;;;;;5.08;79.22;102187.72;4940586;28;20054;-72
2023/01/25 03:30:59;;;;;;;0.40;0.35;;;;;;;5.10;79.13;102183.47;4941818;28;20057;-72
2023/01/25 03:33:27;;;;;;;1.00;0.43;;;;;;;5.11;79.27;102182.63;4938335;28;20051;-72
2023/01/25 03:35:54;;;;;;;0.70;0.30;;;;;;;5.12;79.13;102178.31;4943995;28;20047;-72
2023/01/25 03:38:21;;;;;;;0.90;0.43;;;;;;;5.13;79.17;102164.53;4942155;28;20047;-72
2023/01/25 03:40:49;;;;;;;0.50;0.38;;;;;;;5.13;79.55;102157.66;4942427;28;20051;-71
2023/01/25 03:43:16;;;;;;;0.73;0.30;;;;;;;5.14;79.25;102151.63;4940644;29;20047;-71
2023/01/25 03:45:43;;;;;;;1.30;0.35;;;;;;;5.14;79.29;102137.78;4943303;28;20143;-72
2023/01/25 03:48:10;;;;;;;0.57;0.30;;;;;;;5.14;78.60;102138.66;4944157;28;20792;-72
2023/01/25 03:50:38;;;;;;;0.50;0.30;;;;;;;5.15;79.29;102135.25;4942723;28;20053;-72
2023/01/25 03:53:13;;;;;;;1.25;0.20;;;;;;;5.16;79.10;102139.59;4937928;28;20062;-72
2023/01/25 03:55:40;;;;;;;0.45;0.30;;;;;;;5.17;79.14;102140.47;4943248;28;20059;-71
2023/01/25 03:58:07;;;;;;;0.35;0.30;;;;;;;5.18;79.10;102130.16;4943876;29;20055;-74
2023/01/25 04:00:34;;;;;;;0.20;0.20;;;;;;;5.15;79.09;102119.72;4939867;28;20137;-75
2023/01/25 04:03:01;;;;;;;0.30;0.30;;;;;;;5.19;78.99;102121.53;4941728;28;20051;-71
2023/01/25 04:05:28;;;;;;;0.50;0.30;;;;;;;5.10;78.98;102105.75;4943722;28;20055;-72
2023/01/25 04:07:56;;;;;;;0.50;0.20;;;;;;;5.22;79.13;102109.50;4937535;28;20055;-71
2023/01/25 04:10:23;;;;;;;0.90;0.30;;;;;;;5.22;79.27;102112.97;4943586;28;20510;-72
2023/01/25 04:12:50;;;;;;;2.67;1.75;;;;;;;5.24;79.21;102108.72;4943446;28;20058;-72
2023/01/25 04:15:17;;;;;;;0.80;0.38;;;;;;;5.24;79.15;102089.69;4940316;28;20044;-71
2023/01/25 04:17:43;;;;;;;0.95;0.60;;;;;;;5.26;79.08;102080.22;4943436;28;20047;-72
2023/01/25 04:20:12;;;;;;;0.60;0.30;;;;;;;5.27;79.06;102090.66;4942741;28;20053;-72
2023/01/25 04:22:38;;;;;;;0.30;0.20;;;;;;;5.28;79.06;102087.19;4940984;28;20095;-72
2023/01/25 04:25:08;;;;;;;0.57;0.30;;;;;;;5.29;79.21;102085.47;4942237;28;20047;-72
2023/01/25 04:27:35;;;;;;;0.30;0.20;;;;;;;5.29;79.03;102077.72;4941432;28;20048;-72
2023/01/25 04:30:01;;;;;;;0.30;0.30;;;;;;;5.31;79.05;102076.03;4944553;28;20416;-72
2023/01/25 04:32:28;;;;;;;1.33;0.20;;;;;;;5.27;79.15;102062.16;4939315;28;20054;-72
2023/01/25 04:34:55;;;;;;;0.45;0.30;;;;;;;5.31;79.19;102065.69;4929220;28;20054;-72
2023/01/25 04:37:22;;;;;;;0.40;0.20;;;;;;;5.31;79.08;102063.09;4941007;28;20052;-72
2023/01/25 04:39:49;;;;;;;0.80;0.25;;;;;;;5.30;79.07;102041.50;4940633;29;20052;-72
2023/01/25 04:42:17;;;;;;;2.38;0.30;;;;;;;5.34;79.21;102060.56;4940561;28;20039;-72
2023/01/25 04:44:44;;;;;;;1.95;0.30;;;;;;;5.35;79.32;102059.72;4944312;28;20497;-72
2023/01/25 04:47:11;;;;;;;0.40;0.40;;;;;;;5.28;79.31;102053.53;4942034;28;20047;-72
2023/01/25 04:49:38;;;;;;;0.68;0.30;;;;;;;5.36;79.33;102053.72;4940545;28;20487;-72
2023/01/25 04:52:05;;;;;;;0.77;0.30;;;;;;;5.37;79.16;102052.88;4940523;28;20439;-72
2023/01/25 04:54:32;;;;;;;0.57;0.28;;;;;;;5.38;79.08;102052.03;4939787;28;20389;-72
2023/01/25 04:56:59;;;;;;;0.40;0.30;;;;;;;5.39;79.13;102051.19;4940558;28;20441;-72
2023/01/25 04:59:27;;;;;;;0.90;0.30;;;;;;;5.40;79.16;102051.22;4941099;28;20605;-72
2023/01/25 05:01:54;;;;;;;0.38;0.22;;;;;;;5.41;79.08;102057.28;4939616;28;20057;-72
2023/01/25 05:04:21;;;;;;;0.38;0.30;;;;;;;5.42;79.19;102064.22;4930406;28;20059;-72
2023/01/25 05:06:48;;;;;;;1.27;0.40;;;;;;;5.42;79.08;102056.44;4943978;28;20059;-72
2023/01/25 05:09:16;;;;;;;0.57;0.40;;;;;;;5.42;78.85;102059.03;4943807;28;20043;-72
2023/01/25 05:11:43;;;;;;;0.40;0.30;;;;;;;5.44;79.16;102047.00;4943101;29;20083;-72
2023/01/25 05:14:09;;;;;;;0.50;0.50;;;;;;;5.45;79.19;102046.16;4941124;28;20044;-72
2023/01/25 05:16:38;;;;;;;0.85;0.38;;;;;;;5.47;79.08;102041.00;4936855;28;20058;-72
2023/01/25 05:19:05;;;;;;;0.30;0.20;;;;;;;5.47;79.19;102038.41;4942281;28;20039;-72
2023/01/25 05:24:15;;;;;;;0.80;0.50;;;;;;;5.48;79.00;102034.97;4941048;28;20519;-72
2023/01/25 05:27:00;;;;;;;0.50;0.30;;;;;;;5.48;79.13;102032.38;4939611;29;20056;-72
2023/01/25 05:29:27;;;;;;;0.55;0.40;;;;;;;5.49;79.19;102021.16;4940355;28;20051;-72
2023/01/25 05:31:56;;;;;;;0.50;0.40;;;;;;;5.49;79.17;102027.22;4938699;28;20047;-71
2023/01/25 05:34:23;;;;;;;0.50;0.40;;;;;;;5.49;79.12;102029.81;4942109;28;20051;-72
2023/01/25 05:36:50;;;;;;;0.50;0.40;;;;;;;5.50;79.27;102034.19;4942412;28;20050;-72
2023/01/25 05:39:17;;;;;;;0.80;0.47;;;;;;;5.52;79.09;102031.59;4938523;29;20053;-72
2023/01/25 05:41:44;;;;;;;0.65;0.40;;;;;;;5.52;79.20;102035.09;4938030;28;20509;-72
2023/01/25 05:44:11;;;;;;;1.08;0.32;;;;;;;5.52;79.20;102040.28;4944054;29;20064;-72
2023/01/25 05:46:38;;;;;;;0.90;0.30;;;;;;;5.52;79.14;102022.13;4940303;28;20530;-71
2023/01/25 05:49:06;;;;;;;0.80;0.50;;;;;;;5.54;79.17;102016.97;4939070;28;20069;-71
2023/01/25 05:51:34;;;;;;;0.40;0.30;;;;;;;5.55;78.99;102029.97;4938956;28;20432;-71
2023/01/25 05:54:01;;;;;;;2.17;0.40;;;;;;;5.50;79.07;102004.78;4938779;28;20063;-71
2023/01/25 05:56:28;;;;;;;0.80;0.47;;;;;;;5.56;78.95;102018.75;4941340;28;20523;-71
2023/01/25 05:58:55;;;;;;;0.55;0.40;;;;;;;5.56;79.09;102012.69;4943323;28;20051;-71
2023/01/25 06:01:22;;;;;;;0.60;0.40;;;;;;;5.57;79.08;102011.84;4940602;28;20047;-71
2023/01/25 06:03:50;;;;;;;0.50;0.43;;;;;;;5.57;79.03;102012.72;4939343;28;20389;-71
2023/01/25 06:06:18;;;;;;;1.33;0.32;;;;;;;5.59;79.01;102002.41;4941733;29;20415;-71
2023/01/25 06:08:45;;;;;;;1.13;0.40;;;;;;;5.58;79.05;102003.25;4938238;28;20050;-72
2023/01/25 06:11:14;;;;;;;0.70;0.40;;;;;;;5.59;78.90;101998.09;4939251;28;20061;-71
2023/01/25 06:13:41;;;;;;;0.80;0.40;;;;;;;5.61;78.98;102005.91;4939969;28;20055;-71
2023/01/25 06:16:08;;;;;;;0.90;0.38;;;;;;;5.60;79.12;101992.03;4940624;29;20126;-71
2023/01/25 06:18:36;;;;;;;0.52;0.40;;;;;;;5.60;79.04;101994.63;4941746;28;20051;-70
2023/01/25 06:21:04;;;;;;;0.60;0.50;;;;;;;5.60;79.01;101999.81;4941581;28;20051;-71
2023/01/25 06:23:32;;;;;;;0.93;0.50;;;;;;;5.56;79.05;101985.06;4939732;28;20143;-71
2023/01/25 06:26:00;;;;;;;0.73;0.40;;;;;;;5.63;79.05;101993.84;4943531;28;20511;-71
2023/01/25 06:28:30;;;;;;;1.23;0.50;;;;;;;5.62;79.00;101987.78;4937208;29;20067;-71
2023/01/25 06:30:57;;;;;;;0.68;0.50;;;;;;;5.64;78.86;101991.28;4941475;28;20066;-71
2023/01/25 06:33:24;;;;;;;2.00;0.40;;;;;;;5.66;79.07;101987.84;4935799;28;20050;-71
2023/01/25 06:35:51;;;;;;;0.40;0.30;;;;;;;5.66;78.98;101998.22;4941946;28;20051;-71
2023/01/25 06:38:18;;;;;;;0.63;0.40;;;;;;;5.66;79.07;101993.03;4938183;28;20054;-71
2023/01/25 06:40:46;;;;;;;0.93;0.32;;;;;;;5.65;79.11;101976.59;4939563;29;20040;-71
2023/01/25 06:43:13;;;;;;;0.57;0.32;;;;;;;5.67;78.81;101985.28;4938319;29;20237;-71
2023/01/25 06:45:40;;;;;;;0.57;0.45;;;;;;;5.69;78.81;101990.50;4936572;28;20054;-71
2023/01/25 06:48:07;;;;;;;0.57;0.40;;;;;;;5.69;79.03;101977.53;4939332;28;20048;-71
2023/01/25 06:50:34;;;;;;;0.65;0.40;;;;;;;5.70;78.90;101976.72;4939516;28;20079;-71
2023/01/25 06:53:01;;;;;;;1.25;0.40;;;;;;;5.70;79.13;101971.53;4938834;29;20055;-71
2023/01/25 06:55:27;;;;;;;1.25;0.98;;;;;;;5.69;78.93;101982.72;4937948;28;20044;-71
2023/01/25 06:58:00;;;;;;;0.40;0.32;;;;;;;5.70;78.95;101979.31;4939339;28;20042;-71
2023/01/25 07:00:26;;;;;;;0.77;0.40;;;;;;;5.70;79.20;101969.81;4935760;28;20046;-70
2023/01/25 07:02:53;;;;;;;3.15;0.47;;;;;;;5.70;78.85;101969.81;4935244;28;20058;-71
2023/01/25 07:05:20;;;;;;;1.45;0.70;;;;;;;5.72;78.99;101967.22;4938825;28;20795;-71
2023/01/25 07:07:47;;;;;;;0.60;0.40;;;;;;;5.70;78.90;101958.56;4939041;28;20509;-71
2023/01/25 07:10:14;;;;;;;0.70;0.50;;;;;;;5.73;78.97;101961.22;4941974;28;20174;-71
2023/01/25 07:12:41;;;;;;;0.50;0.40;;;;;;;5.73;78.90;101953.44;4942668;28;20056;-71
2023/01/25 07:15:10;;;;;;;1.35;0.73;;;;;;;5.73;79.04;101956.03;4943381;28;20449;-71
2023/01/25 07:17:37;;;;;;;0.88;0.88;;;;;;;5.75;79.01;101956.91;4941439;28;20047;-71
2023/01/25 07:20:04;;;;;;;1.63;0.50;;;;;;;5.74;78.94;101953.44;4942718;28;20054;-71
2023/01/25 07:22:31;;;;;;;1.05;0.50;;;;;;;5.74;78.94;101950.00;4941103;28;20061;-71
2023/01/25 07:24:58;;;;;;;0.60;0.40;;;;;;;5.77;79.09;101952.66;4941234;28;20058;-71
2023/01/25 07:27:25;;;;;;;1.65;0.40;;;;;;;5.77;78.74;101944.88;4942889;28;20039;-70
2023/01/25 07:29:52;;;;;;;0.60;0.40;;;;;;;5.78;78.92;101952.69;4937769;28;20053;-71
2023/01/25 07:32:20;;;;;;;0.40;0.40;;;;;;;5.80;78.86;101955.28;4940165;29;20064;-71
2023/01/25 07:34:47;;;;;;;1.00;0.40;;;;;;;5.80;78.95;101950.09;4940396;28;20043;-71
2023/01/25 07:37:14;;;;;;;0.50;0.40;;;;;;;5.81;78.78;101944.97;4938293;28;20050;-71
2023/01/25 07:39:46;;;;;;;1.55;0.38;;;;;;;5.81;78.84;101934.59;4944385;28;20059;-71
2023/01/25 07:42:14;;;;;;;1.73;0.50;;;;;;;5.82;78.90;101945.84;4945493;28;20123;-71
2023/01/25 07:44:41;;;;;;;1.00;0.50;;;;;;;5.83;78.88;101939.78;4939372;28;20059;-70
2023/01/25 07:47:07;;;;;;;0.30;0.30;;;;;;;5.83;78.83;101943.28;4941910;28;20658;-71
2023/01/25 07:49:36;;;;;;;0.60;0.40;;;;;;;5.85;78.92;101943.31;4939287;28;20047;-71
2023/01/25 07:52:03;;;;;;;0.80;0.47;;;;;;;5.86;78.97;101937.25;4943189;29;20437;-71
2023/01/25 07:54:29;;;;;;;0.60;0.38;;;;;;;5.86;78.92;101939.84;4939943;28;20047;-71
2023/01/25 07:56:56;;;;;;;0.30;0.25;;;;;;;5.88;79.01;101930.41;4942376;28;20043;-71
2023/01/25 07:59:24;;;;;;;1.63;0.47;;;;;;;5.89;79.15;101936.44;4939980;29;20051;-71
2023/01/25 08:01:52;;;;;;;1.58;0.30;;;;;;;5.91;78.89;101933.03;4941066;28;20053;-71
2023/01/25 08:04:19;;;;;;;1.15;0.43;;;;;;;5.89;79.14;101918.28;4942491;28;20067;-71
2023/01/25 08:06:47;;;;;;;0.52;0.30;;;;;;;5.92;78.84;101927.03;4943765;28;20047;-71
2023/01/25 08:09:18;;;;;;;0.50;0.30;;;;;;;5.94;78.94;101914.09;4937933;28;20048;-71
2023/01/25 08:11:46;;;;;;;0.40;0.40;;;;;;;5.94;79.06;101907.19;4941568;28;20138;-70
2023/01/25 08:14:12;;;;;;;0.30;0.30;;;;;;;5.95;78.83;101914.16;4941955;28;20081;-71
2023/01/25 08:16:40;;;;;;;0.55;0.30;;;;;;;5.97;78.95;101912.44;4938060;28;20059;-71
2023/01/25 08:19:07;;;;;;;0.93;0.40;;;;;;;5.99;78.72;101912.47;4940704;28;20043;-71
2023/01/25 08:21:35;;;;;;;3.42;0.25;;;;;;;6.00;79.02;101906.44;4941625;28;20058;-71
2023/01/25 08:24:06;;;;;;;0.77;0.40;;;;;;;6.01;78.72;101906.47;4942112;28;20043;-70
2023/01/25 08:26:33;;;;;;;0.80;0.30;;;;;;;6.01;78.98;101885.72;4942786;28;20057;-71
2023/01/25 08:29:00;;;;;;;0.40;0.30;;;;;;;6.03;78.87;101886.66;4937945;28;20050;-72
2023/01/25 08:31:30;;;;;;;0.28;0.20;;;;;;;6.05;79.05;101884.94;4940911;28;20527;-71
2023/01/25 08:33:57;;;;;;;0.40;0.20;;;;;;;6.06;78.97;101878.91;4939066;28;20565;-71
2023/01/25 08:36:26;;;;;;;0.30;0.20;;;;;;;6.06;78.93;101873.72;4936713;28;20048;-71
2023/01/25 08:38:55;;;;;;;0.43;0.20;;;;;;;6.10;79.16;101871.19;4941930;28;20048;-71
2023/01/25 08:41:24;;;;;;;1.38;0.30;;;;;;;6.13;79.09;101871.22;4936877;28;20048;-71
2023/01/25 08:43:53;;;;;;;1.88;0.20;;;;;;;6.12;78.92;101867.78;4944280;29;20057;-71
2023/01/25 08:46:22;;;;;;;0.30;0.20;;;;;;;6.14;78.88;101863.47;4941243;28;20047;-71
2023/01/25 08:48:52;;;;;;;0.93;0.43;;;;;;;6.12;78.62;101861.69;4941760;28;20055;-71
2023/01/25 08:51:19;;;;;;;0.45;0.20;;;;;;;6.17;78.83;101862.66;4943964;28;20058;-71
2023/01/25 08:53:46;;;;;;;1.05;0.20;;;;;;;6.18;78.80;101854.91;4936385;28;20048;-71
2023/01/25 08:56:15;;;;;;;0.93;0.30;;;;;;;6.19;78.90;101867.00;4937568;28;20057;-71
2023/01/25 08:58:46;;;;;;;1.13;0.20;;;;;;;6.21;78.78;101869.66;4939878;28;20054;-71
2023/01/25 09:01:15;;;;;;;0.60;0.22;;;;;;;6.23;78.73;101867.94;4938963;28;20051;-71
2023/01/25 09:03:44;;;;;;;1.85;0.20;;;;;;;6.22;78.85;101858.41;4937326;28;20047;-71
2023/01/25 09:06:12;;;;;;;0.55;0.10;;;;;;;6.26;78.61;101857.59;4939106;28;20055;-71
2023/01/25 09:08:39;;;;;;;0.38;0.20;;;;;;;6.26;78.74;101857.59;4938480;28;20058;-71
2023/01/25 09:11:08;;;;;;;0.40;0.20;;;;;;;6.26;78.53;101852.41;4939092;28;20058;-70
2023/01/25 09:13:35;;;;;;;0.30;0.20;;;;;;;6.28;78.58;101851.59;4941434;28;20051;-71
2023/01/25 09:16:06;;;;;;;1.45;0.20;;;;;;;6.29;78.58;101857.69;4940858;28;20043;-71
2023/01/25 09:18:35;;;;;;;0.32;0.20;;;;;;;6.27;78.45;101846.41;4941827;28;20051;-71
2023/01/25 09:21:06;;;;;;;0.30;0.20;;;;;;;6.31;78.61;101850.78;4939793;28;20054;-70
2023/01/25 09:23:33;;;;;;;0.43;0.10;;;;;;;6.35;78.82;101856.88;4941710;28;20051;-71
2023/01/25 09:26:01;;;;;;;1.20;0.28;;;;;;;6.35;78.42;101857.78;4941652;28;20501;-72
2023/01/25 09:28:29;;;;;;;0.75;0.40;;;;;;;6.37;78.41;101853.47;4937285;28;20044;-72
2023/01/25 09:30:57;;;;;;;1.00;0.20;;;;;;;6.37;78.16;101853.47;4934610;29;20039;-72
2023/01/25 09:33:27;;;;;;;0.20;0.10;;;;;;;6.39;78.32;101846.59;4939131;29;20051;-71
2023/01/25 09:35:54;;;;;;;0.55;0.10;;;;;;;6.41;78.21;101833.66;4937241;29;20061;-72
2023/01/25 09:38:22;;;;;;;0.57;0.20;;;;;;;6.41;78.41;101842.28;4939470;28;20048;-72
2023/01/25 09:41:02;;;;;;;0.25;0.10;;;;;;;6.44;78.23;101850.13;4943447;28;20062;-75
2023/01/25 09:43:43;;;;;;;0.43;0.10;;;;;;;6.45;78.22;101833.69;4939876;28;20051;-71
2023/01/25 09:46:22;;;;;;;1.13;0.30;;;;;;;6.45;78.24;101844.06;4935634;28;20055;-72
2023/01/25 09:49:00;;;;;;;0.25;0.10;;;;;;;6.47;78.48;101842.38;4926150;28;20051;-72
2023/01/25 09:51:40;;;;;;;0.17;0.10;;;;;;;6.48;78.17;101825.94;4938867;28;20044;-71
2023/01/25 09:54:10;;;;;;;0.40;0.10;;;;;;;6.50;78.09;101824.25;4940271;29;20051;-71
2023/01/25 09:56:39;;;;;;;3.40;0.10;;;;;;;6.50;78.20;101832.06;4939499;28;20047;-71
2023/01/25 09:59:15;;;;;;;0.45;0.10;;;;;;;6.52;78.15;101826.91;4933881;28;20051;-71
2023/01/25 10:01:47;;;;;;;0.10;0.03;;;;;;;6.52;77.85;101822.56;4943638;29;20620;-71
2023/01/25 10:04:19;;;;;;;0.75;0.17;;;;;;;6.54;78.05;101812.19;4937428;28;20062;-72
2023/01/25 10:06:50;;;;;;;0.25;0.10;;;;;;;6.56;77.82;101799.25;4938571;29;20524;-72
2023/01/25 10:09:29;;;;;;;0.20;0.10;;;;;;;6.56;77.76;101807.91;4939647;28;20130;-72
2023/01/25 10:11:57;;;;;;;1.48;0.13;;;;;;;6.57;78.11;101800.97;4940763;29;20063;-72
2023/01/25 10:14:24;;;;;;;0.75;0.10;;;;;;;6.58;77.92;101802.75;4942079;29;20043;-71
2023/01/25 10:17:04;;;;;;;0.82;0.13;;;;;;;6.58;77.93;101795.84;4939368;28;20081;-72
2023/01/25 10:19:48;;;;;;;0.40;0.20;;;;;;;6.60;77.69;101790.66;4943570;29;20061;-72
2023/01/25 10:22:19;;;;;;;0.20;0.10;;;;;;;6.61;78.00;101795.88;4939070;28;20050;-72
2023/01/25 10:25:06;;;;;;;0.43;0.20;;;;;;;6.62;77.68;101788.94;4936443;28;20047;-72
2023/01/25 10:27:41;;;;;;;0.00;0.00;;;;;;;6.64;77.72;101779.47;4937383;28;20055;-72
2023/01/25 10:30:23;;;;;;;0.10;0.10;;;;;;;6.64;77.66;101774.28;4939434;28;20053;-72
2023/01/25 10:32:52;;;;;;;0.20;0.15;;;;;;;6.66;77.50;101776.03;4941759;29;20047;-72
2023/01/25 10:35:23;;;;;;;1.17;0.30;;;;;;;6.67;77.92;101766.53;4940470;28;20055;-72
2023/01/25 10:37:50;;;;;;;0.20;0.10;;;;;;;6.69;77.63;101765.69;4938375;28;20057;-72
2023/01/25 10:40:22;;;;;;;0.10;0.10;;;;;;;6.72;77.50;101767.47;4945247;28;20066;-72
2023/01/25 10:42:54;;;;;;;0.43;0.10;;;;;;;6.72;77.77;101754.47;4941476;28;20476;-72
2023/01/25 10:45:21;;;;;;;0.60;0.15;;;;;;;6.74;77.75;101747.56;4942700;28;20053;-72
2023/01/25 10:47:52;;;;;;;0.20;0.10;;;;;;;6.75;77.64;101749.31;4942725;28;20715;-72
2023/01/25 10:50:47;;;;;;;0.20;0.10;;;;;;;6.79;77.76;101732.06;4944172;28;20079;-72
2023/01/25 10:53:30;;;;;;;0.80;0.00;;;;;;;6.79;77.59;101730.31;4942903;28;20047;-73
2023/01/25 10:56:05;;;;;;;0.85;0.10;;;;;;;6.73;77.55;101714.66;4941985;28;20052;-72
2023/01/25 10:58:35;;;;;;;0.10;0.10;;;;;;;6.81;77.30;101728.63;4941199;28;20051;-72
2023/01/25 11:01:05;;;;;;;0.20;0.10;;;;;;;6.83;77.42;101711.34;4941007;28;20583;-74
2023/01/25 11:03:37;;;;;;;0.10;0.10;;;;;;;6.86;77.51;101708.78;4943436;28;20055;-73
2023/01/25 11:06:07;;;;;;;0.30;0.03;;;;;;;6.87;77.53;101713.13;4944979;28;20067;-72
2023/01/25 11:08:36;;;;;;;0.10;0.10;;;;;;;6.85;77.06;101709.63;4941454;29;20906;-73
2023/01/25 11:11:25;;;;;;;0.47;0.10;;;;;;;6.91;77.36;101706.22;4942032;29;20055;-73
2023/01/25 11:13:54;;;;;;;0.10;0.00;;;;;;;6.91;77.02;101708.81;4942643;28;20056;-73
2023/01/25 11:16:33;;;;;;;0.10;0.10;;;;;;;6.92;77.13;101714.03;4947352;28;20047;-74
2023/01/25 11:19:02;;;;;;;0.10;0.10;;;;;;;6.91;77.21;101709.69;4940877;28;20588;-74
2023/01/25 11:21:32;;;;;;;0.10;0.10;;;;;;;6.94;77.15;101701.06;4942378;28;20055;-74
2023/01/25 11:24:17;;;;;;;0.15;0.15;;;;;;;6.95;77.14;101695.03;4944843;28;20035;-74
2023/01/25 11:26:44;;;;;;;0.20;0.05;;;;;;;6.95;76.88;101684.63;4939146;28;20621;-73
2023/01/25 11:29:14;;;;;;;0.40;0.10;;;;;;;6.95;76.67;101687.25;4942820;28;20057;-73
2023/01/25 11:31:45;;;;;;;0.20;0.10;;;;;;;6.96;77.01;101684.63;4943995;29;20044;-71
2023/01/25 11:34:14;;;;;;;1.40;0.05;;;;;;;6.89;76.68;101664.66;4945376;28;20088;-74
2023/01/25 11:36:52;;;;;;;0.10;0.10;;;;;;;6.94;76.59;101673.38;4943639;28;21318;-74
2023/01/25 11:39:32;;;;;;;2.53;0.10;;;;;;;6.98;76.91;101669.94;4944846;28;20054;-73
2023/01/25 11:42:09;;;;;;;0.10;0.00;;;;;;;6.99;76.69;101663.03;4943595;28;20053;-74
2023/01/25 11:45:08;;;;;;;0.20;0.03;;;;;;;7.00;76.61;101667.34;4945779;29;20043;-74
2023/01/25 11:47:49;;;;;;;0.10;0.10;;;;;;;6.98;76.61;101656.97;4939841;28;20081;-74